createdAt,value
2023-01-05T00:01:49.132Z,101933.00
2023-01-05T00:04:16.058Z,101926.78
2023-01-05T00:06:42.626Z,101919.75
2023-01-05T00:09:12.271Z,101914.28
2023-01-05T00:11:57.042Z,101913.53
2023-01-05T00:14:44.847Z,101910.25
2023-01-05T00:17:32.140Z,101903.06
2023-01-05T00:20:17.444Z,101901.44
2023-01-05T00:22:52.121Z,101897.94
2023-01-05T00:25:24.043Z,101900.69
2023-01-05T00:27:51.822Z,101897.94
2023-01-05T00:30:21.301Z,101891.22
2023-01-05T00:32:48.358Z,101889.38
2023-01-05T00:35:15.873Z,101889.38
2023-01-05T00:37:43.223Z,101883.16
2023-01-05T00:40:12.784Z,101883.91
2023-01-05T00:42:39.618Z,101880.44
2023-01-05T00:45:08.194Z,101879.13
2023-01-05T00:47:34.599Z,101868.25
2023-01-05T00:50:01.209Z,101879.13
2023-01-05T00:52:27.773Z,101869.59
2023-01-05T00:54:54.298Z,101876.94
2023-01-05T00:57:20.751Z,101869.97
2023-01-05T00:59:47.196Z,101863.69
2023-01-05T01:02:14.689Z,101870.69
2023-01-05T01:04:41.237Z,101868.13
2023-01-05T01:07:07.867Z,101865.38
2023-01-05T01:09:34.409Z,101872.88
2023-01-05T01:12:01.232Z,101872.16
2023-01-05T01:14:28.052Z,101873.63
2023-01-05T01:16:54.551Z,101876.34
2023-01-05T01:19:24.459Z,101868.84
2023-01-05T01:21:51.144Z,101873.63
2023-01-05T01:24:23.126Z,101876.03
2023-01-05T01:26:49.678Z,101865.19
2023-01-05T01:29:17.385Z,101867.03
2023-01-05T01:31:46.703Z,101867.59
2023-01-05T01:34:13.363Z,101864.28
2023-01-05T01:36:39.964Z,101865.94
2023-01-05T01:39:06.578Z,101867.94
2023-01-05T01:41:33.070Z,101857.09
2023-01-05T01:43:59.456Z,101855.28
2023-01-05T01:46:26.944Z,101851.63
2023-01-05T01:48:59.016Z,101863.38
2023-01-05T01:51:44.862Z,101851.50
2023-01-05T01:54:15.736Z,101847.78
2023-01-05T01:56:46.884Z,101845.78
2023-01-05T01:59:13.589Z,101840.31
2023-01-05T02:01:40.572Z,101843.97
2023-01-05T02:04:07.975Z,101842.69
2023-01-05T02:06:34.504Z,101834.81
2023-01-05T02:09:01.107Z,101830.44
2023-01-05T02:11:33.330Z,101834.81
2023-01-05T02:14:17.952Z,101828.78
2023-01-05T02:16:47.323Z,101823.44
2023-01-05T02:19:41.496Z,101828.78
2023-01-05T02:22:46.587Z,101822.88
2023-01-05T02:26:00.959Z,101818.16
2023-01-05T02:28:51.934Z,101818.38
2023-01-05T02:31:31.714Z,101811.75
2023-01-05T02:34:07.469Z,101806.97
2023-01-05T02:36:59.833Z,101797.13
2023-01-05T02:39:47.116Z,101803.72
2023-01-05T02:42:18.373Z,101798.59
2023-01-05T02:44:44.909Z,101788.38
2023-01-05T02:47:27.689Z,101780.03
2023-01-05T02:50:01.743Z,101776.59
2023-01-05T02:52:33.448Z,101777.53
2023-01-05T02:55:05.504Z,101775.72
2023-01-05T02:57:48.347Z,101766.56
2023-01-05T03:00:28.899Z,101765.81
2023-01-05T03:03:05.671Z,101760.28
2023-01-05T03:05:39.048Z,101761.19
2023-01-05T03:08:10.436Z,101758.84
2023-01-05T03:11:14.637Z,101754.69
2023-01-05T03:13:43.902Z,101747.16
2023-01-05T03:16:14.919Z,101745.00
2023-01-05T03:18:59.998Z,101747.75
2023-01-05T03:21:28.279Z,101743.41
2023-01-05T03:24:16.122Z,101743.97
2023-01-05T03:27:02.493Z,101738.84
2023-01-05T03:29:47.200Z,101738.09
2023-01-05T03:32:44.231Z,101730.56
2023-01-05T03:35:31.616Z,101731.16
2023-01-05T03:38:00.918Z,101732.06
2023-01-05T03:40:33.281Z,101729.53
2023-01-05T03:43:01.085Z,101723.50
2023-01-05T03:45:38.104Z,101720.22
2023-01-05T03:48:05.007Z,101723.50
2023-01-05T03:50:31.494Z,101718.44
2023-01-05T03:52:57.981Z,101721.19
2023-01-05T03:55:24.415Z,101715.47
2023-01-05T03:57:50.843Z,101709.25
2023-01-05T04:00:17.530Z,101706.00
2023-01-05T04:02:44.066Z,101712.97
2023-01-05T04:05:10.533Z,101705.66
2023-01-05T04:07:36.942Z,101705.09
2023-01-05T04:10:04.433Z,101703.50
2023-01-05T04:12:31.001Z,101703.13
2023-01-05T04:14:57.409Z,101697.66
2023-01-05T04:17:23.857Z,101694.34
2023-01-05T04:19:50.280Z,101691.06
2023-01-05T04:22:19.856Z,101693.59
2023-01-05T04:24:48.827Z,101689.56
2023-01-05T04:27:15.257Z,101688.78
2023-01-05T04:29:41.654Z,101674.84
2023-01-05T04:32:08.084Z,101675.59
2023-01-05T04:34:34.563Z,101672.66
2023-01-05T04:37:01.009Z,101680.78
2023-01-05T04:39:27.401Z,101676.59
2023-01-05T04:41:54.246Z,101680.09
2023-01-05T04:44:20.660Z,101683.38
2023-01-05T04:46:47.121Z,101675.91
2023-01-05T04:49:13.683Z,101672.59
2023-01-05T04:51:40.092Z,101670.41
2023-01-05T04:54:06.868Z,101676.66
2023-01-05T04:56:33.291Z,101665.84
2023-01-05T04:58:59.789Z,101667.16
2023-01-05T05:01:26.426Z,101669.66
2023-01-05T05:03:53.186Z,101670.97
2023-01-05T05:06:19.850Z,101666.94
2023-01-05T05:08:46.271Z,101672.94
2023-01-05T05:11:12.698Z,101665.81
2023-01-05T05:13:39.125Z,101653.38
2023-01-05T05:16:06.047Z,101659.94
2023-01-05T05:18:32.538Z,101662.34
2023-01-05T05:20:59.012Z,101661.44
2023-01-05T05:23:25.710Z,101661.06
2023-01-05T05:25:53.006Z,101657.56
2023-01-05T05:28:20.380Z,101663.22
2023-01-05T05:30:49.503Z,101661.22
2023-01-05T05:33:15.959Z,101671.63
2023-01-05T05:35:42.444Z,101661.53
2023-01-05T05:38:09.087Z,101666.09
2023-01-05T05:40:35.554Z,101664.28
2023-01-05T05:43:01.994Z,101663.25
2023-01-05T05:45:28.448Z,101667.28
2023-01-05T05:47:54.899Z,101664.72
2023-01-05T05:50:21.309Z,101666.19
2023-01-05T05:52:47.871Z,101674.25
2023-01-05T05:55:14.414Z,101666.97
2023-01-05T05:57:40.817Z,101661.16
2023-01-05T06:00:07.788Z,101660.78
2023-01-05T06:02:34.319Z,101659.13
2023-01-05T06:05:00.803Z,101662.22
2023-01-05T06:07:27.221Z,101660.03
2023-01-05T06:09:53.637Z,101662.22
2023-01-05T06:12:20.140Z,101660.03
2023-01-05T06:14:46.581Z,101653.84
2023-01-05T06:17:12.978Z,101654.75
2023-01-05T06:19:39.441Z,101649.06
2023-01-05T06:22:05.860Z,101655.31
2023-01-05T06:24:32.230Z,101645.63
2023-01-05T06:26:58.679Z,101649.31
2023-01-05T06:29:25.101Z,101648.03
2023-01-05T06:31:51.558Z,101642.53
2023-01-05T06:34:18.000Z,101646.88
2023-01-05T06:36:44.514Z,101647.47
2023-01-05T06:39:10.927Z,101641.25
2023-01-05T06:41:37.356Z,101638.13
2023-01-05T06:44:05.474Z,101648.00
2023-01-05T06:46:31.866Z,101639.59
2023-01-05T06:48:58.258Z,101648.00
2023-01-05T06:51:24.676Z,101649.13
2023-01-05T06:53:51.089Z,101662.34
2023-01-05T06:56:17.521Z,101649.88
2023-01-05T06:58:43.984Z,101649.72
2023-01-05T07:01:10.540Z,101647.31
2023-01-05T07:03:37.003Z,101642.25
2023-01-05T07:06:07.623Z,101646.66
2023-01-05T07:08:36.417Z,101645.88
2023-01-05T07:11:02.847Z,101647.19
2023-01-05T07:13:29.273Z,101642.50
2023-01-05T07:15:55.715Z,101642.28
2023-01-05T07:18:22.292Z,101639.72
2023-01-05T07:20:48.716Z,101645.16
2023-01-05T07:23:21.556Z,101644.47
2023-01-05T07:25:48.003Z,101647.16
2023-01-05T07:28:14.395Z,101649.50
2023-01-05T07:30:41.008Z,101650.81
2023-01-05T07:33:07.450Z,101657.25
2023-01-05T07:35:33.847Z,101657.66
2023-01-05T07:38:00.279Z,101654.34
2023-01-05T07:40:27.146Z,101653.66
2023-01-05T07:42:55.011Z,101662.78
2023-01-05T07:45:21.714Z,101661.88
2023-01-05T07:47:48.130Z,101665.53
2023-01-05T07:50:14.625Z,101671.19
2023-01-05T07:52:41.091Z,101657.84
2023-01-05T07:55:08.171Z,101658.22
2023-01-05T07:57:34.681Z,101656.03
2023-01-05T08:00:01.061Z,101652.19
2023-01-05T08:02:32.225Z,101650.91
2023-01-05T08:05:02.152Z,101651.81
2023-01-05T08:07:28.627Z,101647.47
2023-01-05T08:10:16.420Z,101640.31
2023-01-05T08:13:01.344Z,101647.75
2023-01-05T08:15:27.775Z,101648.84
2023-01-05T08:17:54.179Z,101656.34
2023-01-05T08:20:20.713Z,101658.50
2023-01-05T08:22:51.540Z,101666.03
2023-01-05T08:25:17.995Z,101661.31
2023-01-05T08:27:44.611Z,101662.03
2023-01-05T08:30:12.240Z,101662.78
2023-01-05T08:32:39.367Z,101663.91
2023-01-05T08:35:06.876Z,101663.91
2023-01-05T08:37:33.365Z,101663.91
2023-01-05T08:39:59.786Z,101656.38
2023-01-05T08:42:26.246Z,101651.63
2023-01-05T08:44:52.687Z,101657.09
2023-01-05T08:47:20.105Z,101657.63
2023-01-05T08:49:47.220Z,101661.88
2023-01-05T08:52:13.682Z,101658.56
2023-01-05T08:54:40.162Z,101649.25
2023-01-05T08:57:06.686Z,101654.03
2023-01-05T08:59:33.115Z,101652.19
2023-01-05T09:01:59.686Z,101648.91
2023-01-05T09:04:27.604Z,101641.41
2023-01-05T09:06:54.459Z,101645.22
2023-01-05T09:09:24.291Z,101639.34
2023-01-05T09:11:50.976Z,101641.66
2023-01-05T09:14:18.771Z,101646.22
2023-01-05T09:19:31.740Z,101656.03
2023-01-05T09:21:58.280Z,101659.69
2023-01-05T09:24:24.898Z,101666.97
2023-01-05T09:26:51.404Z,101660.78
2023-01-05T09:29:17.951Z,101668.09
2023-01-05T09:31:44.481Z,101668.44
2023-01-05T09:34:11.095Z,101657.50
2023-01-05T09:36:40.878Z,101659.31
2023-01-05T09:39:07.686Z,101664.09
2023-01-05T09:41:42.074Z,101661.84
2023-01-05T09:44:14.484Z,101660.31
2023-01-05T09:46:45.787Z,101665.44
2023-01-05T09:49:15.228Z,101657.94
2023-01-05T09:51:42.567Z,101659.41
2023-01-05T09:54:19.196Z,101662.88
2023-01-05T09:59:41.294Z,101668.16
2023-01-05T10:02:29.310Z,101658.09
2023-01-05T10:04:57.245Z,101657.13
2023-01-05T10:07:30.434Z,101652.56
2023-01-05T10:10:01.831Z,101656.44
2023-01-05T10:12:59.723Z,101647.44
2023-01-05T10:15:27.524Z,101643.00
2023-01-05T10:17:54.136Z,101642.78
2023-01-05T10:20:43.897Z,101639.31
2023-01-05T10:23:28.621Z,101639.25
2023-01-05T10:26:05.392Z,101631.97
2023-01-05T10:28:40.783Z,101621.88
2023-01-05T10:31:24.115Z,101621.66
2023-01-05T10:34:28.589Z,101609.53
2023-01-05T10:37:27.596Z,101613.81
2023-01-05T10:40:06.096Z,101605.09
2023-01-05T10:42:51.232Z,101600.75
2023-01-05T10:45:20.597Z,101601.06
2023-01-05T10:47:49.221Z,101592.22
2023-01-05T10:50:37.488Z,101585.88
2023-01-05T10:53:16.297Z,101586.47
2023-01-05T10:56:03.633Z,101582.56
2023-01-05T10:58:35.186Z,101574.53
2023-01-05T11:01:04.760Z,101577.00
2023-01-05T11:04:26.570Z,101575.47
2023-01-05T11:06:31.565Z,101566.94
2023-01-05T11:09:22.838Z,101554.94
2023-01-05T11:12:01.242Z,101554.31
2023-01-05T11:14:32.759Z,101553.06
2023-01-05T11:17:04.510Z,101548.69
2023-01-05T11:19:35.868Z,101540.88
2023-01-05T11:22:03.063Z,101537.88
2023-01-05T11:24:34.090Z,101531.41
2023-01-05T11:27:03.396Z,101534.16
2023-01-05T11:29:30.682Z,101530.09
2023-01-05T11:32:12.145Z,101521.22
2023-01-05T11:34:47.803Z,101520.69
2023-01-05T11:37:26.540Z,101520.09
2023-01-05T11:40:01.669Z,101520.28
2023-01-05T11:42:34.764Z,101515.66
2023-01-05T11:45:28.629Z,101519.47
2023-01-05T11:47:58.813Z,101515.50
2023-01-05T11:50:31.807Z,101519.03
2023-01-05T11:53:02.467Z,101517.50
2023-01-05T11:55:36.659Z,101504.75
2023-01-05T11:58:22.976Z,101493.63
2023-01-05T12:01:25.513Z,101498.34
2023-01-05T12:04:13.371Z,101489.03
2023-01-05T12:06:48.951Z,101500.19
2023-01-05T12:09:50.452Z,101497.81
2023-01-05T12:12:40.733Z,101487.78
2023-01-05T12:15:31.167Z,101484.13
2023-01-05T12:18:44.260Z,101494.56
2023-01-05T12:21:20.318Z,101487.75
2023-01-05T12:24:23.944Z,101477.41
2023-01-05T12:26:56.580Z,101475.81
2023-01-05T12:35:45.045Z,101478.25
2023-01-05T12:38:26.664Z,101470.09
2023-01-05T12:41:11.867Z,101478.72
2023-01-05T12:43:50.419Z,101478.75
2023-01-05T12:46:23.435Z,101475.53
2023-01-05T12:49:00.101Z,101459.16
2023-01-05T12:51:28.807Z,101450.91
2023-01-05T12:53:59.507Z,101444.56
2023-01-05T12:56:34.188Z,101459.22
2023-01-05T12:59:42.239Z,101449.44
2023-01-05T13:02:21.195Z,101450.91
2023-01-05T13:04:58.718Z,101440.97
2023-01-05T13:07:38.162Z,101431.91
2023-01-05T13:10:20.863Z,101434.06
2023-01-05T13:12:53.331Z,101430.00
2023-01-05T13:15:29.600Z,101420.34
2023-01-05T13:17:59.056Z,101418.09
2023-01-05T13:20:40.485Z,101418.09
2023-01-05T13:23:18.179Z,101425.97
2023-01-05T13:25:54.105Z,101422.19
2023-01-05T13:28:24.542Z,101418.38
2023-01-05T13:31:22.642Z,101412.47
2023-01-05T13:34:09.853Z,101416.72
2023-01-05T13:36:59.843Z,101404.78
2023-01-05T13:40:00.571Z,101411.75
2023-01-05T13:42:50.151Z,101406.00
2023-01-05T13:45:40.661Z,101412.94
2023-01-05T13:48:57.503Z,101403.44
2023-01-05T13:51:43.094Z,101402.34
2023-01-05T13:55:07.820Z,101405.53
2023-01-05T13:57:42.536Z,101394.31
2023-01-05T14:00:33.093Z,101396.03
2023-01-05T14:03:08.000Z,101391.34
2023-01-05T14:05:46.901Z,101402.53
2023-01-05T14:08:25.795Z,101406.44
2023-01-05T14:11:10.426Z,101415.34
2023-01-05T14:13:46.071Z,101412.00
2023-01-05T14:16:35.182Z,101412.31
2023-01-05T14:19:21.496Z,101409.13
2023-01-05T14:21:54.491Z,101405.53
2023-01-05T14:24:36.692Z,101411.56
2023-01-05T14:27:11.606Z,101412.31
2023-01-05T14:32:42.703Z,101420.13
2023-01-05T14:35:12.231Z,101424.53
2023-01-05T14:37:42.876Z,101417.84
2023-01-05T14:40:20.629Z,101426.00
2023-01-05T14:42:48.960Z,101417.34
2023-01-05T14:45:23.165Z,101413.69
2023-01-05T14:47:54.050Z,101413.97
2023-01-05T14:50:39.058Z,101415.91
2023-01-05T14:53:14.494Z,101414.06
2023-01-05T14:55:52.893Z,101415.72
2023-01-05T14:58:55.633Z,101419.66
2023-01-05T15:01:28.297Z,101399.53
2023-01-05T15:04:05.054Z,101398.56
2023-01-05T15:06:50.156Z,101401.38
2023-01-05T15:09:58.485Z,101404.13
2023-01-05T15:12:36.161Z,101404.22
2023-01-05T15:15:34.548Z,101398.75
2023-01-05T15:18:22.712Z,101399.19
2023-01-05T15:21:29.162Z,101401.88
2023-01-05T15:24:23.368Z,101407.25
2023-01-05T15:27:10.196Z,101400.63
2023-01-05T15:30:01.750Z,101400.34
2023-01-05T15:32:34.342Z,101403.25
2023-01-05T15:35:26.502Z,101410.38
2023-01-05T15:37:53.192Z,101412.16
2023-01-05T15:40:22.744Z,101410.63
2023-01-05T15:42:52.690Z,101408.63
2023-01-05T15:45:23.428Z,101412.13
2023-01-05T15:47:51.108Z,101409.50
2023-01-05T15:50:25.168Z,101417.44
2023-01-05T15:52:57.294Z,101411.13
2023-01-05T15:55:25.023Z,101415.13
2023-01-05T15:57:54.007Z,101415.72
2023-01-05T16:00:24.281Z,101422.16
2023-01-05T16:02:50.893Z,101420.09
2023-01-05T16:05:17.390Z,101425.41
2023-01-05T16:07:50.533Z,101427.63
2023-01-05T16:10:20.113Z,101430.34
2023-01-05T16:12:49.419Z,101427.13
2023-01-05T16:15:20.469Z,101422.25
2023-01-05T16:17:47.969Z,101426.03
2023-01-05T16:20:20.123Z,101418.78
2023-01-05T16:23:14.448Z,101425.81
2023-01-05T16:25:48.816Z,101438.22
2023-01-05T16:28:18.699Z,101436.56
2023-01-05T16:30:47.153Z,101437.38
2023-01-05T16:33:27.195Z,101428.38
2023-01-05T16:36:19.759Z,101432.03
2023-01-05T16:38:46.612Z,101442.78
2023-01-05T16:41:20.369Z,101446.44
2023-01-05T16:44:01.379Z,101454.13
2023-01-05T16:46:30.847Z,101452.78
2023-01-05T16:49:25.242Z,101440.13
2023-01-05T16:51:52.977Z,101433.41
2023-01-05T16:54:23.519Z,101429.69
2023-01-05T16:56:57.769Z,101437.66
2023-01-05T16:59:40.201Z,101443.09
2023-01-05T17:02:28.419Z,101449.69
2023-01-05T17:04:55.130Z,101453.53
2023-01-05T17:07:22.209Z,101454.94
2023-01-05T17:09:49.263Z,101464.47
2023-01-05T17:12:15.894Z,101463.88
2023-01-05T17:14:44.239Z,101459.47
2023-01-05T17:17:12.736Z,101469.16
2023-01-05T17:19:39.477Z,101470.41
2023-01-05T17:22:10.277Z,101479.19
2023-01-05T17:24:38.863Z,101478.28
2023-01-05T17:27:05.315Z,101479.69
2023-01-05T17:29:32.823Z,101491.94
2023-01-05T17:31:59.582Z,101492.69
2023-01-05T17:34:26.215Z,101494.09
2023-01-05T17:36:58.762Z,101493.50
2023-01-05T17:39:25.897Z,101494.78
2023-01-05T17:41:52.740Z,101497.34
2023-01-05T17:44:19.374Z,101496.84
2023-01-05T17:46:47.343Z,101488.66
2023-01-05T17:49:19.320Z,101490.72
2023-01-05T17:51:45.993Z,101495.25
2023-01-05T17:54:12.562Z,101505.09
2023-01-05T17:56:39.203Z,101513.94
2023-01-05T17:59:05.863Z,101507.59
2023-01-05T18:01:33.911Z,101518.34
2023-01-05T18:04:01.522Z,101518.75
2023-01-05T18:06:28.158Z,101522.91
2023-01-05T18:08:54.823Z,101510.41
2023-01-05T18:11:21.476Z,101524.91
2023-01-05T18:13:47.987Z,101524.91
2023-01-05T18:16:15.219Z,101521.56
2023-01-05T18:18:41.938Z,101533.81
2023-01-05T18:21:08.487Z,101534.56
2023-01-05T18:23:35.273Z,101538.03
2023-01-05T18:26:06.729Z,101541.88
2023-01-05T18:28:33.043Z,101535.97
2023-01-05T18:31:00.961Z,101542.78
2023-01-05T18:33:27.822Z,101532.50
2023-01-05T18:38:21.817Z,101535.25
2023-01-05T18:40:50.015Z,101533.91
2023-01-05T18:43:17.326Z,101533.50
2023-01-05T18:45:44.232Z,101531.25
2023-01-05T18:48:10.741Z,101538.22
2023-01-05T18:50:49.849Z,101543.03
2023-01-05T18:53:17.487Z,101548.91
2023-01-05T18:55:43.889Z,101552.56
2023-01-05T18:58:11.447Z,101556.59
2023-01-05T19:00:42.698Z,101557.50
2023-01-05T19:03:10.083Z,101551.06
2023-01-05T19:05:44.250Z,101545.34
2023-01-05T19:08:12.723Z,101552.56
2023-01-05T19:10:39.176Z,101566.16
2023-01-05T19:13:06.101Z,101565.97
2023-01-05T19:15:34.172Z,101563.91
2023-01-05T19:18:01.035Z,101567.38
2023-01-05T19:20:27.529Z,101568.44
2023-01-05T19:22:54.021Z,101570.44
2023-01-05T19:25:20.807Z,101578.31
2023-01-05T19:27:47.272Z,101570.25
2023-01-05T19:30:15.003Z,101572.81
2023-01-05T19:32:41.472Z,101567.88
2023-01-05T19:35:08.124Z,101574.16
2023-01-05T19:37:35.668Z,101568.53
2023-01-05T19:40:02.805Z,101579.78
2023-01-05T19:42:31.807Z,101580.78
2023-01-05T19:44:58.277Z,101581.34
2023-01-05T19:47:24.837Z,101584.00
2023-01-05T19:49:53.013Z,101576.69
2023-01-05T19:52:19.492Z,101584.06
2023-01-05T19:54:45.993Z,101583.56
2023-01-05T19:57:12.414Z,101581.97
2023-01-05T19:59:38.994Z,101580.13
2023-01-05T20:02:06.296Z,101579.41
2023-01-05T20:04:32.859Z,101578.34
2023-01-05T20:07:01.840Z,101586.06
2023-01-05T20:09:29.462Z,101590.53
2023-01-05T20:12:05.795Z,101600.84
2023-01-05T20:14:39.614Z,101593.56
2023-01-05T20:17:08.799Z,101597.25
2023-01-05T20:19:36.738Z,101599.81
2023-01-05T20:22:04.903Z,101605.63
2023-01-05T20:24:33.278Z,101602.34
2023-01-05T20:27:02.932Z,101613.38
2023-01-05T20:29:29.682Z,101613.47
2023-01-05T20:32:00.505Z,101624.75
2023-01-05T20:34:31.843Z,101626.06
2023-01-05T20:36:59.651Z,101626.22
2023-01-05T20:39:26.389Z,101635.19
2023-01-05T20:41:54.008Z,101639.03
2023-01-05T20:44:24.563Z,101634.66
2023-01-05T20:46:53.751Z,101634.25
2023-01-05T20:49:21.343Z,101633.91
2023-01-05T20:51:48.264Z,101632.44
2023-01-05T20:54:15.589Z,101635.75
2023-01-05T20:56:43.722Z,101638.69
2023-01-05T20:59:24.599Z,101646.75
2023-01-05T21:01:51.972Z,101647.66
2023-01-05T21:04:19.728Z,101645.09
2023-01-05T21:06:46.867Z,101644.91
2023-01-05T21:09:14.173Z,101642.53
2023-01-05T21:11:41.741Z,101652.72
2023-01-05T21:14:08.922Z,101655.09
2023-01-05T21:16:39.125Z,101652.19
2023-01-05T21:19:10.031Z,101647.41
2023-01-05T21:21:37.396Z,101647.03
2023-01-05T21:24:07.713Z,101653.59
2023-01-05T21:26:34.213Z,101655.78
2023-01-05T21:29:00.655Z,101658.34
2023-01-05T21:31:27.458Z,101660.69
2023-01-05T21:33:54.305Z,101658.28
2023-01-05T21:36:26.973Z,101660.50
2023-01-05T21:39:03.519Z,101655.72
2023-01-05T21:41:50.878Z,101668.88
2023-01-05T21:44:18.268Z,101670.72
2023-01-05T21:46:44.875Z,101671.63
2023-01-05T21:49:11.971Z,101672.72
2023-01-05T21:51:57.393Z,101674.53
2023-01-05T21:54:43.171Z,101666.47
2023-01-05T21:57:10.213Z,101679.81
2023-01-05T21:59:36.887Z,101679.25
2023-01-05T22:02:03.983Z,101682.91
2023-01-05T22:04:30.477Z,101682.34
2023-01-05T22:06:57.372Z,101681.06
2023-01-05T22:09:23.876Z,101690.06
2023-01-05T22:11:50.352Z,101681.44
2023-01-05T22:14:16.788Z,101688.28
2023-01-05T22:16:43.352Z,101689.03
2023-01-05T22:19:11.041Z,101694.50
2023-01-05T22:21:37.529Z,101692.50
2023-01-05T22:24:04.173Z,101693.41
2023-01-05T22:26:30.657Z,101688.28
2023-01-05T22:28:57.057Z,101691.75
2023-01-05T22:31:27.124Z,101696.69
2023-01-05T22:33:56.135Z,101698.69
2023-01-05T22:36:23.821Z,101697.81
2023-01-05T22:38:51.971Z,101699.09
2023-01-05T22:41:21.274Z,101701.47
2023-01-05T22:43:48.429Z,101700.91
2023-01-05T22:46:19.160Z,101707.69
2023-01-05T22:48:47.017Z,101703.84
2023-01-05T22:51:14.829Z,101704.19
2023-01-05T22:53:41.300Z,101706.22
2023-01-05T22:56:09.244Z,101704.75
2023-01-05T22:58:36.468Z,101697.03
2023-01-05T23:01:20.043Z,101689.72
2023-01-05T23:03:46.966Z,101695.22
2023-01-05T23:06:13.907Z,101694.88
2023-01-05T23:08:42.874Z,101702.88
2023-01-05T23:11:15.713Z,101695.56
2023-01-05T23:13:42.437Z,101690.44
2023-01-05T23:16:09.799Z,101700.66
2023-01-05T23:18:37.736Z,101703.88
2023-01-05T23:21:07.599Z,101702.78
2023-01-05T23:23:34.887Z,101697.44
2023-01-05T23:26:01.371Z,101708.25
2023-01-05T23:28:29.121Z,101701.84
2023-01-05T23:30:58.003Z,101699.28
2023-01-05T23:33:26.941Z,101703.88
2023-01-05T23:35:54.750Z,101706.81
2023-01-05T23:38:22.542Z,101708.81
2023-01-05T23:40:50.867Z,101707.91
2023-01-05T23:43:20.642Z,101711.91
2023-01-05T23:45:47.367Z,101709.53
2023-01-05T23:48:14.270Z,101711.34
2023-01-05T23:50:45.902Z,101712.63
2023-01-05T23:53:13.566Z,101711.88
2023-01-05T23:55:40.881Z,101704.19
2023-01-05T23:58:08.013Z,101700.53
